sensor_id;sensor_type;location;lat;lon;timestamp;temperature;humidity
43049;DHT22;28673;44.412;11.918;2023-06-26T00:06:00;21.70;89.40
43049;DHT22;28673;44.412;11.918;2023-06-26T00:08:27;21.70;88.60
43049;DHT22;28673;44.412;11.918;2023-06-26T00:10:53;21.60;88.80
43049;DHT22;28673;44.412;11.918;2023-06-26T00:13:23;21.60;88.90
43049;DHT22;28673;44.412;11.918;2023-06-26T00:15:49;21.60;89.00
43049;DHT22;28673;44.412;11.918;2023-06-26T00:18:15;21.50;89.00
43049;DHT22;28673;44.412;11.918;2023-06-26T00:20:44;21.50;89.20
43049;DHT22;28673;44.412;11.918;2023-06-26T00:23:11;21.40;89.20
43049;DHT22;28673;44.412;11.918;2023-06-26T00:25:38;21.40;89.30
43049;DHT22;28673;44.412;11.918;2023-06-26T00:28:04;21.40;89.50
43049;DHT22;28673;44.412;11.918;2023-06-26T00:33:55;21.40;90.00
43049;DHT22;28673;44.412;11.918;2023-06-26T00:36:24;21.30;89.50
43049;DHT22;28673;44.412;11.918;2023-06-26T00:38:52;21.30;89.60
43049;DHT22;28673;44.412;11.918;2023-06-26T00:41:18;21.30;89.80
43049;DHT22;28673;44.412;11.918;2023-06-26T00:43:44;21.30;90.00
43049;DHT22;28673;44.412;11.918;2023-06-26T00:46:13;21.20;90.00
43049;DHT22;28673;44.412;11.918;2023-06-26T00:48:43;21.20;90.00
43049;DHT22;28673;44.412;11.918;2023-06-26T00:51:09;21.20;90.30
43049;DHT22;28673;44.412;11.918;2023-06-26T00:53:35;21.20;90.10
43049;DHT22;28673;44.412;11.918;2023-06-26T00:56:05;21.10;90.20
43049;DHT22;28673;44.412;11.918;2023-06-26T00:58:31;21.10;90.20
43049;DHT22;28673;44.412;11.918;2023-06-26T01:00:57;21.10;90.30
43049;DHT22;28673;44.412;11.918;2023-06-26T01:03:24;21.10;90.30
43049;DHT22;28673;44.412;11.918;2023-06-26T01:05:52;21.10;90.30
43049;DHT22;28673;44.412;11.918;2023-06-26T01:08:19;21.10;90.40
43049;DHT22;28673;44.412;11.918;2023-06-26T01:10:46;21.00;90.40
43049;DHT22;28673;44.412;11.918;2023-06-26T01:13:14;21.00;90.50
43049;DHT22;28673;44.412;11.918;2023-06-26T01:15:40;21.00;90.50
43049;DHT22;28673;44.412;11.918;2023-06-26T01:18:07;21.00;90.50
43049;DHT22;28673;44.412;11.918;2023-06-26T01:20:36;20.90;90.50
43049;DHT22;28673;44.412;11.918;2023-06-26T01:26:10;20.90;90.60
43049;DHT22;28673;44.412;11.918;2023-06-26T01:28:41;20.90;90.70
43049;DHT22;28673;44.412;11.918;2023-06-26T01:31:07;20.90;90.60
43049;DHT22;28673;44.412;11.918;2023-06-26T01:33:34;20.80;90.50
43049;DHT22;28673;44.412;11.918;2023-06-26T01:36:01;20.80;90.60
43049;DHT22;28673;44.412;11.918;2023-06-26T01:38:27;20.80;90.90
43049;DHT22;28673;44.412;11.918;2023-06-26T01:40:56;20.80;90.60
43049;DHT22;28673;44.412;11.918;2023-06-26T01:51:45;20.70;90.90
43049;DHT22;28673;44.412;11.918;2023-06-26T01:54:18;20.70;90.80
43049;DHT22;28673;44.412;11.918;2023-06-26T01:56:49;20.60;90.70
43049;DHT22;28673;44.412;11.918;2023-06-26T01:59:17;20.60;90.80
43049;DHT22;28673;44.412;11.918;2023-06-26T02:01:44;20.60;90.80
43049;DHT22;28673;44.412;11.918;2023-06-26T02:04:09;20.60;90.80
43049;DHT22;28673;44.412;11.918;2023-06-26T02:06:35;20.60;90.80
43049;DHT22;28673;44.412;11.918;2023-06-26T02:09:01;20.50;90.80
43049;DHT22;28673;44.412;11.918;2023-06-26T02:11:29;20.50;90.80
43049;DHT22;28673;44.412;11.918;2023-06-26T02:13:55;20.50;90.90
43049;DHT22;28673;44.412;11.918;2023-06-26T02:16:21;20.50;90.90
43049;DHT22;28673;44.412;11.918;2023-06-26T02:18:47;20.50;90.90
43049;DHT22;28673;44.412;11.918;2023-06-26T02:21:13;20.50;90.90
43049;DHT22;28673;44.412;11.918;2023-06-26T02:23:39;20.40;90.90
43049;DHT22;28673;44.412;11.918;2023-06-26T02:26:05;20.40;90.90
43049;DHT22;28673;44.412;11.918;2023-06-26T02:28:31;20.40;90.90
43049;DHT22;28673;44.412;11.918;2023-06-26T02:30:59;20.40;90.90
43049;DHT22;28673;44.412;11.918;2023-06-26T02:33:25;20.40;90.90
43049;DHT22;28673;44.412;11.918;2023-06-26T02:35:51;20.40;90.90
43049;DHT22;28673;44.412;11.918;2023-06-26T02:38:16;20.30;90.90
43049;DHT22;28673;44.412;11.918;2023-06-26T02:40:42;20.30;90.90
43049;DHT22;28673;44.412;11.918;2023-06-26T02:43:08;20.30;90.90
43049;DHT22;28673;44.412;11.918;2023-06-26T02:45:34;20.30;90.90
43049;DHT22;28673;44.412;11.918;2023-06-26T02:48:00;20.30;90.90
43049;DHT22;28673;44.412;11.918;2023-06-26T02:50:26;20.20;90.90
43049;DHT22;28673;44.412;11.918;2023-06-26T02:53:03;20.20;90.90
43049;DHT22;28673;44.412;11.918;2023-06-26T02:55:29;20.20;91.00
43049;DHT22;28673;44.412;11.918;2023-06-26T02:57:55;20.10;91.00
43049;DHT22;28673;44.412;11.918;2023-06-26T03:00:22;20.10;90.90
43049;DHT22;28673;44.412;11.918;2023-06-26T03:02:53;20.10;90.90
43049;DHT22;28673;44.412;11.918;2023-06-26T03:05:21;20.10;90.90
43049;DHT22;28673;44.412;11.918;2023-06-26T03:07:49;20.10;91.00
43049;DHT22;28673;44.412;11.918;2023-06-26T03:10:16;20.10;91.00
43049;DHT22;28673;44.412;11.918;2023-06-26T03:12:43;20.10;91.00
43049;DHT22;28673;44.412;11.918;2023-06-26T03:15:10;20.10;91.10
43049;DHT22;28673;44.412;11.918;2023-06-26T03:17:38;20.00;91.00
43049;DHT22;28673;44.412;11.918;2023-06-26T03:20:08;20.00;91.10
43049;DHT22;28673;44.412;11.918;2023-06-26T03:22:43;20.00;91.10
43049;DHT22;28673;44.412;11.918;2023-06-26T03:25:10;20.00;91.10
43049;DHT22;28673;44.412;11.918;2023-06-26T03:27:36;20.10;91.20
43049;DHT22;28673;44.412;11.918;2023-06-26T03:30:02;20.00;91.10
43049;DHT22;28673;44.412;11.918;2023-06-26T03:32:28;20.00;91.10
43049;DHT22;28673;44.412;11.918;2023-06-26T03:34:54;20.00;91.10
43049;DHT22;28673;44.412;11.918;2023-06-26T03:37:20;20.00;91.20
43049;DHT22;28673;44.412;11.918;2023-06-26T03:39:46;20.00;91.20
43049;DHT22;28673;44.412;11.918;2023-06-26T03:42:12;19.90;91.20
43049;DHT22;28673;44.412;11.918;2023-06-26T03:44:38;19.90;91.20
43049;DHT22;28673;44.412;11.918;2023-06-26T03:47:05;20.00;91.30
43049;DHT22;28673;44.412;11.918;2023-06-26T03:49:31;20.00;91.30
43049;DHT22;28673;44.412;11.918;2023-06-26T03:51:57;20.00;91.30
43049;DHT22;28673;44.412;11.918;2023-06-26T03:54:22;20.00;91.30
43049;DHT22;28673;44.412;11.918;2023-06-26T03:56:49;20.00;91.30
43049;DHT22;28673;44.412;11.918;2023-06-26T03:59:15;20.00;91.40
43049;DHT22;28673;44.412;11.918;2023-06-26T04:01:41;20.00;91.40
43049;DHT22;28673;44.412;11.918;2023-06-26T04:04:07;20.00;91.40
43049;DHT22;28673;44.412;11.918;2023-06-26T04:06:33;20.00;91.40
43049;DHT22;28673;44.412;11.918;2023-06-26T04:08:59;20.00;91.40
43049;DHT22;28673;44.412;11.918;2023-06-26T04:11:26;20.00;91.50
43049;DHT22;28673;44.412;11.918;2023-06-26T04:13:52;20.00;91.50
43049;DHT22;28673;44.412;11.918;2023-06-26T04:16:20;20.00;91.60
43049;DHT22;28673;44.412;11.918;2023-06-26T04:18:46;20.00;91.60
43049;DHT22;28673;44.412;11.918;2023-06-26T04:21:13;20.00;91.60
43049;DHT22;28673;44.412;11.918;2023-06-26T04:23:40;20.00;91.60
43049;DHT22;28673;44.412;11.918;2023-06-26T04:26:06;20.00;91.60
43049;DHT22;28673;44.412;11.918;2023-06-26T04:28:34;20.00;91.70
43049;DHT22;28673;44.412;11.918;2023-06-26T04:31:01;20.00;91.70
43049;DHT22;28673;44.412;11.918;2023-06-26T04:33:29;20.00;91.80
43049;DHT22;28673;44.412;11.918;2023-06-26T04:35:55;20.00;91.80
43049;DHT22;28673;44.412;11.918;2023-06-26T04:38:21;20.10;91.90
43049;DHT22;28673;44.412;11.918;2023-06-26T04:40:48;20.10;91.90
43049;DHT22;28673;44.412;11.918;2023-06-26T04:43:14;20.10;91.90
43049;DHT22;28673;44.412;11.918;2023-06-26T04:45:40;20.10;91.90
43049;DHT22;28673;44.412;11.918;2023-06-26T04:48:06;20.10;91.80
43049;DHT22;28673;44.412;11.918;2023-06-26T04:50:35;20.20;91.90
43049;DHT22;28673;44.412;11.918;2023-06-26T04:53:01;20.20;91.90
43049;DHT22;28673;44.412;11.918;2023-06-26T04:55:28;20.20;91.90
43049;DHT22;28673;44.412;11.918;2023-06-26T04:57:54;20.20;91.90
43049;DHT22;28673;44.412;11.918;2023-06-26T05:00:20;20.30;91.90
43049;DHT22;28673;44.412;11.918;2023-06-26T05:02:46;20.30;91.90
43049;DHT22;28673;44.412;11.918;2023-06-26T05:05:12;20.30;92.00
43049;DHT22;28673;44.412;11.918;2023-06-26T05:07:41;20.40;92.00
43049;DHT22;28673;44.412;11.918;2023-06-26T05:10:07;20.40;92.10
43049;DHT22;28673;44.412;11.918;2023-06-26T05:12:33;20.50;92.10
43049;DHT22;28673;44.412;11.918;2023-06-26T05:14:59;20.50;92.00
43049;DHT22;28673;44.412;11.918;2023-06-26T05:17:25;20.60;92.10
43049;DHT22;28673;44.412;11.918;2023-06-26T05:19:51;20.70;92.00
43049;DHT22;28673;44.412;11.918;2023-06-26T05:22:17;20.80;92.00
43049;DHT22;28673;44.412;11.918;2023-06-26T05:24:46;20.90;91.90
43049;DHT22;28673;44.412;11.918;2023-06-26T05:27:13;21.00;92.10
43049;DHT22;28673;44.412;11.918;2023-06-26T05:29:49;21.00;92.00
43049;DHT22;28673;44.412;11.918;2023-06-26T05:32:16;21.10;92.00
43049;DHT22;28673;44.412;11.918;2023-06-26T05:34:49;21.20;91.90
43049;DHT22;28673;44.412;11.918;2023-06-26T05:37:21;21.30;91.90
43049;DHT22;28673;44.412;11.918;2023-06-26T05:39:48;21.40;92.20
43049;DHT22;28673;44.412;11.918;2023-06-26T05:42:14;21.60;91.90
43049;DHT22;28673;44.412;11.918;2023-06-26T05:44:40;21.60;91.80
43049;DHT22;28673;44.412;11.918;2023-06-26T05:47:06;21.70;91.80
43049;DHT22;28673;44.412;11.918;2023-06-26T05:49:33;21.90;91.70
43049;DHT22;28673;44.412;11.918;2023-06-26T05:51:59;22.00;91.60
43049;DHT22;28673;44.412;11.918;2023-06-26T05:54:25;22.10;91.50
43049;DHT22;28673;44.412;11.918;2023-06-26T05:56:57;22.20;91.40
43049;DHT22;28673;44.412;11.918;2023-06-26T05:59:25;22.30;91.30
43049;DHT22;28673;44.412;11.918;2023-06-26T06:01:52;22.40;91.20
43049;DHT22;28673;44.412;11.918;2023-06-26T06:04:18;22.50;91.00
43049;DHT22;28673;44.412;11.918;2023-06-26T06:06:44;22.70;90.90
43049;DHT22;28673;44.412;11.918;2023-06-26T06:09:10;22.80;90.80
43049;DHT22;28673;44.412;11.918;2023-06-26T06:11:36;23.00;90.80
43049;DHT22;28673;44.412;11.918;2023-06-26T06:14:02;23.10;90.60
43049;DHT22;28673;44.412;11.918;2023-06-26T06:16:28;23.30;90.40
43049;DHT22;28673;44.412;11.918;2023-06-26T06:18:55;23.30;90.30
43049;DHT22;28673;44.412;11.918;2023-06-26T06:21:21;23.50;90.20
43049;DHT22;28673;44.412;11.918;2023-06-26T06:23:47;23.60;90.10
43049;DHT22;28673;44.412;11.918;2023-06-26T06:26:13;23.80;89.80
43049;DHT22;28673;44.412;11.918;2023-06-26T06:28:39;23.90;89.20
43049;DHT22;28673;44.412;11.918;2023-06-26T06:31:05;24.10;88.80
43049;DHT22;28673;44.412;11.918;2023-06-26T06:33:32;24.20;88.30
43049;DHT22;28673;44.412;11.918;2023-06-26T06:35:57;24.30;87.70
43049;DHT22;28673;44.412;11.918;2023-06-26T06:38:23;24.40;87.20
43049;DHT22;28673;44.412;11.918;2023-06-26T06:40:49;24.70;87.10
43049;DHT22;28673;44.412;11.918;2023-06-26T06:43:15;24.90;86.70
43049;DHT22;28673;44.412;11.918;2023-06-26T06:45:41;25.20;86.40
43049;DHT22;28673;44.412;11.918;2023-06-26T06:48:07;25.40;85.80
43049;DHT22;28673;44.412;11.918;2023-06-26T06:50:33;25.60;85.20
43049;DHT22;28673;44.412;11.918;2023-06-26T06:52:59;25.90;84.50
43049;DHT22;28673;44.412;11.918;2023-06-26T06:55:24;26.20;83.70
43049;DHT22;28673;44.412;11.918;2023-06-26T06:57:51;26.50;83.10
43049;DHT22;28673;44.412;11.918;2023-06-26T07:00:17;26.70;82.20
43049;DHT22;28673;44.412;11.918;2023-06-26T07:02:45;26.90;82.00
43049;DHT22;28673;44.412;11.918;2023-06-26T07:05:11;27.20;81.00
43049;DHT22;28673;44.412;11.918;2023-06-26T07:07:38;27.30;80.60
43049;DHT22;28673;44.412;11.918;2023-06-26T07:10:09;27.40;79.90
43049;DHT22;28673;44.412;11.918;2023-06-26T07:12:36;27.60;79.40
43049;DHT22;28673;44.412;11.918;2023-06-26T07:15:04;27.80;79.00
43049;DHT22;28673;44.412;11.918;2023-06-26T07:17:32;28.00;79.20
43049;DHT22;28673;44.412;11.918;2023-06-26T07:19:58;28.30;78.50
43049;DHT22;28673;44.412;11.918;2023-06-26T07:22:24;28.60;78.00
43049;DHT22;28673;44.412;11.918;2023-06-26T07:24:50;28.80;76.90
43049;DHT22;28673;44.412;11.918;2023-06-26T07:27:16;29.00;76.60
43049;DHT22;28673;44.412;11.918;2023-06-26T07:29:44;29.30;76.70
43049;DHT22;28673;44.412;11.918;2023-06-26T07:32:10;29.50;76.50
43049;DHT22;28673;44.412;11.918;2023-06-26T07:34:36;29.70;75.80
43049;DHT22;28673;44.412;11.918;2023-06-26T07:37:03;29.90;75.20
43049;DHT22;28673;44.412;11.918;2023-06-26T07:39:29;30.10;75.30
43049;DHT22;28673;44.412;11.918;2023-06-26T07:41:55;30.40;74.80
43049;DHT22;28673;44.412;11.918;2023-06-26T07:44:22;30.60;74.00
43049;DHT22;28673;44.412;11.918;2023-06-26T07:46:48;30.80;73.70
43049;DHT22;28673;44.412;11.918;2023-06-26T07:49:13;31.00;73.40
43049;DHT22;28673;44.412;11.918;2023-06-26T07:51:39;31.30;73.10
43049;DHT22;28673;44.412;11.918;2023-06-26T07:54:05;31.50;72.60
43049;DHT22;28673;44.412;11.918;2023-06-26T07:56:31;31.70;72.10
43049;DHT22;28673;44.412;11.918;2023-06-26T07:58:57;31.90;72.10
43049;DHT22;28673;44.412;11.918;2023-06-26T08:01:26;32.00;71.90
43049;DHT22;28673;44.412;11.918;2023-06-26T08:03:51;32.20;71.80
43049;DHT22;28673;44.412;11.918;2023-06-26T08:06:17;32.30;72.10
43049;DHT22;28673;44.412;11.918;2023-06-26T08:08:44;32.40;71.60
43049;DHT22;28673;44.412;11.918;2023-06-26T08:11:10;32.60;71.90
43049;DHT22;28673;44.412;11.918;2023-06-26T08:13:36;32.70;71.50
43049;DHT22;28673;44.412;11.918;2023-06-26T08:16:02;32.90;70.40
43049;DHT22;28673;44.412;11.918;2023-06-26T08:18:28;33.10;70.10
43049;DHT22;28673;44.412;11.918;2023-06-26T08:20:55;33.30;69.70
43049;DHT22;28673;44.412;11.918;2023-06-26T08:23:20;33.40;69.60
43049;DHT22;28673;44.412;11.918;2023-06-26T08:25:48;33.60;69.00
43049;DHT22;28673;44.412;11.918;2023-06-26T08:28:14;33.70;69.00
43049;DHT22;28673;44.412;11.918;2023-06-26T08:30:40;34.00;68.20
43049;DHT22;28673;44.412;11.918;2023-06-26T08:33:06;34.20;68.20
43049;DHT22;28673;44.412;11.918;2023-06-26T08:35:36;34.40;67.90
43049;DHT22;28673;44.412;11.918;2023-06-26T08:38:01;34.60;67.60
43049;DHT22;28673;44.412;11.918;2023-06-26T08:40:27;34.80;67.00
43049;DHT22;28673;44.412;11.918;2023-06-26T08:42:53;35.00;67.20
43049;DHT22;28673;44.412;11.918;2023-06-26T08:45:20;35.00;66.70
43049;DHT22;28673;44.412;11.918;2023-06-26T08:47:48;35.10;66.30
43049;DHT22;28673;44.412;11.918;2023-06-26T08:50:17;35.20;65.60
43049;DHT22;28673;44.412;11.918;2023-06-26T08:53:20;35.30;65.20
43049;DHT22;28673;44.412;11.918;2023-06-26T08:55:49;35.50;64.00
43049;DHT22;28673;44.412;11.918;2023-06-26T08:58:18;35.60;63.80
43049;DHT22;28673;44.412;11.918;2023-06-26T09:00:44;35.60;65.90
43049;DHT22;28673;44.412;11.918;2023-06-26T09:03:10;35.50;66.00
43049;DHT22;28673;44.412;11.918;2023-06-26T09:05:38;35.60;65.90
43049;DHT22;28673;44.412;11.918;2023-06-26T09:08:04;35.70;65.70
43049;DHT22;28673;44.412;11.918;2023-06-26T09:10:29;35.90;64.90
43049;DHT22;28673;44.412;11.918;2023-06-26T09:12:56;36.20;64.10
43049;DHT22;28673;44.412;11.918;2023-06-26T09:15:26;36.40;63.20
43049;DHT22;28673;44.412;11.918;2023-06-26T09:17:57;36.70;63.10
43049;DHT22;28673;44.412;11.918;2023-06-26T09:20:27;36.90;63.20
43049;DHT22;28673;44.412;11.918;2023-06-26T09:22:54;36.90;63.40
43049;DHT22;28673;44.412;11.918;2023-06-26T09:25:22;36.90;62.80
43049;DHT22;28673;44.412;11.918;2023-06-26T09:27:48;37.00;62.70
43049;DHT22;28673;44.412;11.918;2023-06-26T09:30:17;37.10;61.30
43049;DHT22;28673;44.412;11.918;2023-06-26T09:32:44;37.10;61.40
43049;DHT22;28673;44.412;11.918;2023-06-26T09:35:10;37.30;62.30
43049;DHT22;28673;44.412;11.918;2023-06-26T09:37:37;37.30;61.60
43049;DHT22;28673;44.412;11.918;2023-06-26T09:40:03;37.50;61.90
43049;DHT22;28673;44.412;11.918;2023-06-26T09:42:30;37.60;60.90
43049;DHT22;28673;44.412;11.918;2023-06-26T09:44:59;37.90;60.70
43049;DHT22;28673;44.412;11.918;2023-06-26T09:47:25;38.30;60.00
43049;DHT22;28673;44.412;11.918;2023-06-26T09:49:51;38.50;59.20
43049;DHT22;28673;44.412;11.918;2023-06-26T09:52:18;38.70;58.90
43049;DHT22;28673;44.412;11.918;2023-06-26T09:54:47;38.90;58.30
43049;DHT22;28673;44.412;11.918;2023-06-26T09:57:18;39.10;58.80
43049;DHT22;28673;44.412;11.918;2023-06-26T09:59:44;39.10;58.50
43049;DHT22;28673;44.412;11.918;2023-06-26T10:02:11;39.10;59.10
43049;DHT22;28673;44.412;11.918;2023-06-26T10:04:37;39.00;57.40
43049;DHT22;28673;44.412;11.918;2023-06-26T10:07:11;39.00;58.10
43049;DHT22;28673;44.412;11.918;2023-06-26T10:09:44;39.10;56.60
43049;DHT22;28673;44.412;11.918;2023-06-26T10:14:42;39.40;56.60
43049;DHT22;28673;44.412;11.918;2023-06-26T10:17:10;39.60;56.90
43049;DHT22;28673;44.412;11.918;2023-06-26T10:19:43;39.80;56.30
43049;DHT22;28673;44.412;11.918;2023-06-26T10:22:09;39.90;56.10
43049;DHT22;28673;44.412;11.918;2023-06-26T10:24:38;40.00;56.00
43049;DHT22;28673;44.412;11.918;2023-06-26T10:27:25;40.00;55.90
43049;DHT22;28673;44.412;11.918;2023-06-26T10:29:54;40.10;55.40
43049;DHT22;28673;44.412;11.918;2023-06-26T10:32:24;40.20;55.70
43049;DHT22;28673;44.412;11.918;2023-06-26T10:34:52;40.40;55.60
43049;DHT22;28673;44.412;11.918;2023-06-26T10:37:43;40.30;55.60
43049;DHT22;28673;44.412;11.918;2023-06-26T10:40:14;40.30;56.20
43049;DHT22;28673;44.412;11.918;2023-06-26T10:42:40;40.30;56.70
43049;DHT22;28673;44.412;11.918;2023-06-26T10:45:29;40.20;56.70
43049;DHT22;28673;44.412;11.918;2023-06-26T10:47:57;40.30;55.70
43049;DHT22;28673;44.412;11.918;2023-06-26T10:50:26;40.50;55.80
43049;DHT22;28673;44.412;11.918;2023-06-26T10:55:51;40.60;55.20
43049;DHT22;28673;44.412;11.918;2023-06-26T11:04:03;40.90;55.90
43049;DHT22;28673;44.412;11.918;2023-06-26T11:06:30;41.00;55.50
43049;DHT22;28673;44.412;11.918;2023-06-26T11:09:01;41.20;55.40
43049;DHT22;28673;44.412;11.918;2023-06-26T11:12:04;41.20;55.70
43049;DHT22;28673;44.412;11.918;2023-06-26T11:14:31;41.10;55.10
43049;DHT22;28673;44.412;11.918;2023-06-26T11:16:58;41.10;55.70
43049;DHT22;28673;44.412;11.918;2023-06-26T11:19:26;41.10;55.40
43049;DHT22;28673;44.412;11.918;2023-06-26T11:21:56;41.20;55.50
43049;DHT22;28673;44.412;11.918;2023-06-26T11:24:23;41.40;54.90
43049;DHT22;28673;44.412;11.918;2023-06-26T11:26:49;41.80;55.40
43049;DHT22;28673;44.412;11.918;2023-06-26T11:29:15;42.00;55.30
43049;DHT22;28673;44.412;11.918;2023-06-26T11:31:42;42.10;54.40
43049;DHT22;28673;44.412;11.918;2023-06-26T11:34:12;42.30;54.30
43049;DHT22;28673;44.412;11.918;2023-06-26T11:36:42;42.20;54.10
43049;DHT22;28673;44.412;11.918;2023-06-26T11:39:08;42.30;54.30
43049;DHT22;28673;44.412;11.918;2023-06-26T11:41:35;42.30;54.20
43049;DHT22;28673;44.412;11.918;2023-06-26T11:44:11;42.60;54.50
43049;DHT22;28673;44.412;11.918;2023-06-26T11:46:39;42.90;54.20
43049;DHT22;28673;44.412;11.918;2023-06-26T11:49:08;42.90;54.00
43049;DHT22;28673;44.412;11.918;2023-06-26T11:51:35;42.80;53.00
43049;DHT22;28673;44.412;11.918;2023-06-26T11:54:02;42.80;54.10
43049;DHT22;28673;44.412;11.918;2023-06-26T11:56:33;42.50;53.80
43049;DHT22;28673;44.412;11.918;2023-06-26T11:59:07;42.50;53.90
43049;DHT22;28673;44.412;11.918;2023-06-26T12:01:39;42.50;54.00
43049;DHT22;28673;44.412;11.918;2023-06-26T12:04:09;42.60;54.00
43049;DHT22;28673;44.412;11.918;2023-06-26T12:06:39;42.80;53.30
43049;DHT22;28673;44.412;11.918;2023-06-26T12:09:09;43.00;53.30
43049;DHT22;28673;44.412;11.918;2023-06-26T12:11:44;43.20;53.40
43049;DHT22;28673;44.412;11.918;2023-06-26T12:14:17;43.10;53.40
43049;DHT22;28673;44.412;11.918;2023-06-26T12:16:45;43.10;53.10
43049;DHT22;28673;44.412;11.918;2023-06-26T12:19:33;43.10;53.70
43049;DHT22;28673;44.412;11.918;2023-06-26T12:21:59;42.80;52.80
43049;DHT22;28673;44.412;11.918;2023-06-26T12:24:36;42.70;53.30
43049;DHT22;28673;44.412;11.918;2023-06-26T12:27:18;42.70;53.40
43049;DHT22;28673;44.412;11.918;2023-06-26T12:29:54;42.50;53.50
43049;DHT22;28673;44.412;11.918;2023-06-26T12:32:26;42.50;53.40
43049;DHT22;28673;44.412;11.918;2023-06-26T12:34:58;42.60;53.40
43049;DHT22;28673;44.412;11.918;2023-06-26T12:37:25;42.50;52.90
43049;DHT22;28673;44.412;11.918;2023-06-26T12:39:54;42.50;53.00
43049;DHT22;28673;44.412;11.918;2023-06-26T12:42:24;42.50;52.90
43049;DHT22;28673;44.412;11.918;2023-06-26T12:44:54;42.50;52.80
43049;DHT22;28673;44.412;11.918;2023-06-26T12:47:27;42.60;52.40
43049;DHT22;28673;44.412;11.918;2023-06-26T12:50:22;42.70;53.20
43049;DHT22;28673;44.412;11.918;2023-06-26T12:52:51;42.70;52.70
43049;DHT22;28673;44.412;11.918;2023-06-26T12:55:16;42.70;52.80
43049;DHT22;28673;44.412;11.918;2023-06-26T12:57:42;42.70;53.10
43049;DHT22;28673;44.412;11.918;2023-06-26T13:00:09;42.70;52.50
43049;DHT22;28673;44.412;11.918;2023-06-26T13:02:36;42.70;52.70
43049;DHT22;28673;44.412;11.918;2023-06-26T13:05:02;42.60;52.60
43049;DHT22;28673;44.412;11.918;2023-06-26T13:07:27;42.70;52.70
43049;DHT22;28673;44.412;11.918;2023-06-26T13:09:56;42.80;52.40
43049;DHT22;28673;44.412;11.918;2023-06-26T13:12:22;42.70;52.70
43049;DHT22;28673;44.412;11.918;2023-06-26T13:14:48;42.70;53.10
43049;DHT22;28673;44.412;11.918;2023-06-26T13:17:14;42.50;53.00
43049;DHT22;28673;44.412;11.918;2023-06-26T13:19:40;42.50;52.80
43049;DHT22;28673;44.412;11.918;2023-06-26T13:22:06;42.40;52.90
43049;DHT22;28673;44.412;11.918;2023-06-26T13:24:34;42.40;52.50
43049;DHT22;28673;44.412;11.918;2023-06-26T13:27:00;42.50;52.40
43049;DHT22;28673;44.412;11.918;2023-06-26T13:29:26;42.70;52.40
43049;DHT22;28673;44.412;11.918;2023-06-26T13:31:52;42.80;51.80
43049;DHT22;28673;44.412;11.918;2023-06-26T13:34:23;43.00;52.40
43049;DHT22;28673;44.412;11.918;2023-06-26T13:36:49;43.20;52.00
43049;DHT22;28673;44.412;11.918;2023-06-26T13:39:16;43.10;51.60
43049;DHT22;28673;44.412;11.918;2023-06-26T13:41:41;43.30;51.50
43049;DHT22;28673;44.412;11.918;2023-06-26T13:44:07;43.40;51.50
43049;DHT22;28673;44.412;11.918;2023-06-26T13:46:33;43.50;51.70
43049;DHT22;28673;44.412;11.918;2023-06-26T13:48:59;43.30;51.80
43049;DHT22;28673;44.412;11.918;2023-06-26T13:51:25;43.10;52.10
43049;DHT22;28673;44.412;11.918;2023-06-26T13:53:51;43.00;52.30
43049;DHT22;28673;44.412;11.918;2023-06-26T13:56:16;42.90;52.10
43049;DHT22;28673;44.412;11.918;2023-06-26T13:58:42;42.90;51.70
43049;DHT22;28673;44.412;11.918;2023-06-26T14:01:09;43.00;52.20
43049;DHT22;28673;44.412;11.918;2023-06-26T14:03:34;43.10;51.30
43049;DHT22;28673;44.412;11.918;2023-06-26T14:06:00;43.20;50.60
43049;DHT22;28673;44.412;11.918;2023-06-26T14:08:26;43.30;50.20
43049;DHT22;28673;44.412;11.918;2023-06-26T14:10:52;43.30;50.70
43049;DHT22;28673;44.412;11.918;2023-06-26T14:13:18;43.30;50.70
43049;DHT22;28673;44.412;11.918;2023-06-26T14:15:44;43.20;51.10
43049;DHT22;28673;44.412;11.918;2023-06-26T14:18:11;43.10;50.40
43049;DHT22;28673;44.412;11.918;2023-06-26T14:20:37;43.30;50.80
43049;DHT22;28673;44.412;11.918;2023-06-26T14:23:03;43.50;51.60
43049;DHT22;28673;44.412;11.918;2023-06-26T14:25:29;43.60;50.40
43049;DHT22;28673;44.412;11.918;2023-06-26T14:27:56;43.60;50.20
43049;DHT22;28673;44.412;11.918;2023-06-26T14:30:22;43.70;50.20
43049;DHT22;28673;44.412;11.918;2023-06-26T14:32:48;43.70;50.90
43049;DHT22;28673;44.412;11.918;2023-06-26T14:35:14;43.60;50.50
43049;DHT22;28673;44.412;11.918;2023-06-26T14:37:40;43.50;51.20
43049;DHT22;28673;44.412;11.918;2023-06-26T14:40:07;43.40;51.00
43049;DHT22;28673;44.412;11.918;2023-06-26T14:42:33;43.20;51.20
43049;DHT22;28673;44.412;11.918;2023-06-26T14:44:59;43.30;51.20
43049;DHT22;28673;44.412;11.918;2023-06-26T14:47:25;43.40;51.40
43049;DHT22;28673;44.412;11.918;2023-06-26T14:49:51;43.40;51.50
43049;DHT22;28673;44.412;11.918;2023-06-26T14:52:17;43.30;51.60
43049;DHT22;28673;44.412;11.918;2023-06-26T14:54:42;43.20;52.30
43049;DHT22;28673;44.412;11.918;2023-06-26T14:57:08;43.20;51.80
43049;DHT22;28673;44.412;11.918;2023-06-26T14:59:34;43.20;52.20
43049;DHT22;28673;44.412;11.918;2023-06-26T15:02:00;43.00;52.70
43049;DHT22;28673;44.412;11.918;2023-06-26T15:04:26;42.90;52.40
43049;DHT22;28673;44.412;11.918;2023-06-26T15:06:52;42.90;52.70
43049;DHT22;28673;44.412;11.918;2023-06-26T15:09:18;42.70;52.80
43049;DHT22;28673;44.412;11.918;2023-06-26T15:11:44;42.50;53.00
43049;DHT22;28673;44.412;11.918;2023-06-26T15:14:10;42.30;53.30
43049;DHT22;28673;44.412;11.918;2023-06-26T15:16:36;42.20;53.40
43049;DHT22;28673;44.412;11.918;2023-06-26T15:19:02;42.00;53.10
43049;DHT22;28673;44.412;11.918;2023-06-26T15:21:30;42.00;53.60
43049;DHT22;28673;44.412;11.918;2023-06-26T15:23:56;41.90;53.40
43049;DHT22;28673;44.412;11.918;2023-06-26T15:26:21;41.90;53.20
43049;DHT22;28673;44.412;11.918;2023-06-26T15:28:47;41.80;53.60
43049;DHT22;28673;44.412;11.918;2023-06-26T15:31:13;41.70;53.60
43049;DHT22;28673;44.412;11.918;2023-06-26T15:33:39;41.60;53.50
43049;DHT22;28673;44.412;11.918;2023-06-26T15:36:05;41.50;53.80
43049;DHT22;28673;44.412;11.918;2023-06-26T15:38:31;41.50;53.60
43049;DHT22;28673;44.412;11.918;2023-06-26T15:40:57;41.30;53.60
43049;DHT22;28673;44.412;11.918;2023-06-26T15:43:23;41.10;54.00
43049;DHT22;28673;44.412;11.918;2023-06-26T15:45:49;40.90;54.10
43049;DHT22;28673;44.412;11.918;2023-06-26T15:48:14;40.80;54.10